Mont-Saint-Guibert, Belgium
Current Conditions -  °F | °C
As of 2:25 PM on Monday 20 Oct 2014 (Local Time) from EBBE Reporting Station
Broken Clouds Broken Clouds  
Wind Chill: 59°   Ceiling: 4500
Heat Index: 59°   Visibility: 6mi
Dew Point: 54°   Wind: 13mph
Humidity: 82%   Direction: 250°WSW
Pressure: 30.06"   Gusts: NA
Location:  50.63°N, 4.61°E
Report Text: EBBE 201225Z 25011KT 9999 FEW012 SCT017 BKN045 15/12 Q1018 WHT BLU TEMPO WHT
Loading
Personal Weather Stations






























Interactive Weather Map
Tropical Storm Tracking
New forecast layout! Learn more

10-Day Weather Forecast

Advertisements
Track Severe Weather on mobile